Time;durP1;ratioP1;P1;durP2;ratioP2;P2;SDS_P1;SDS_P2;PMS_P1;PMS_P2;Temp;Humidity;BMP_temperature;BMP_pressure;BME280_temperature;BME280_humidity;BME280_pressure;Samples;Min_cycle;Max_cycle;Signal;HPM_P1;HPM_P2
2022/05/04 00:00:17;;;;;;;8.37;4.77;;;9.20;99.90;;;;;;4170796;28;20036;-58
2022/05/04 00:02:18;;;;;;;8.10;4.83;;;9.20;99.90;;;;;;4171948;28;20488;-56
2022/05/04 00:04:20;;;;;;;7.17;5.43;;;9.20;99.90;;;;;;4170657;28;20079;-58
2022/05/04 00:06:22;;;;;;;7.20;4.87;;;9.20;99.90;;;;;;4171327;28;20037;-56
2022/05/04 00:08:23;;;;;;;10.10;4.90;;;9.20;99.90;;;;;;4171830;28;20480;-58
2022/05/04 00:10:24;;;;;;;7.90;4.70;;;9.20;99.90;;;;;;4175021;28;20037;-57
2022/05/04 00:12:26;;;;;;;7.30;5.17;;;9.20;99.90;;;;;;4173973;28;20459;-58
2022/05/04 00:14:29;;;;;;;5.90;5.23;;;9.10;99.90;;;;;;4174275;28;20041;-59
2022/05/04 00:16:30;;;;;;;10.33;5.60;;;9.10;99.90;;;;;;4173670;28;20337;-55
2022/05/04 00:18:32;;;;;;;7.43;5.20;;;9.10;99.90;;;;;;4174149;28;20440;-59
2022/05/04 00:20:33;;;;;;;7.73;5.07;;;9.10;99.90;;;;;;4174475;28;20040;-55
2022/05/04 00:22:34;;;;;;;7.60;5.30;;;9.00;99.90;;;;;;4173456;28;20095;-58
2022/05/04 00:24:35;;;;;;;8.60;5.17;;;9.10;99.90;;;;;;4173845;28;20041;-58
2022/05/04 00:26:37;;;;;;;5.60;4.67;;;9.10;99.90;;;;;;4174600;28;20033;-59
2022/05/04 00:28:38;;;;;;;8.70;5.40;;;9.00;99.90;;;;;;4173660;28;20037;-56
2022/05/04 00:30:39;;;;;;;8.23;5.07;;;9.00;99.90;;;;;;4174711;28;20536;-54
2022/05/04 00:32:41;;;;;;;9.50;5.23;;;9.00;99.90;;;;;;4174140;28;20477;-56
2022/05/04 00:34:43;;;;;;;8.53;5.67;;;9.00;99.90;;;;;;4173630;28;20044;-56
2022/05/04 00:36:44;;;;;;;7.93;5.40;;;9.00;99.90;;;;;;4174260;28;20091;-66
2022/05/04 00:38:45;;;;;;;6.77;5.23;;;9.00;99.90;;;;;;4173981;28;20070;-56
2022/05/04 00:40:46;;;;;;;6.20;5.20;;;9.00;99.90;;;;;;4174081;28;20703;-60
2022/05/04 00:42:48;;;;;;;10.67;5.30;;;9.00;99.90;;;;;;4174267;28;20079;-59
2022/05/04 00:44:50;;;;;;;7.10;4.70;;;9.00;99.90;;;;;;4174674;28;20103;-58
2022/05/04 00:46:51;;;;;;;8.37;5.10;;;9.00;99.90;;;;;;4174134;28;20028;-56
2022/05/04 00:48:52;;;;;;;7.77;5.03;;;9.00;99.90;;;;;;4173955;28;20033;-59
2022/05/04 00:50:55;;;;;;;10.57;4.83;;;8.90;99.90;;;;;;4173848;28;20082;-57
2022/05/04 00:52:56;;;;;;;8.97;5.00;;;8.90;99.90;;;;;;4174392;28;20037;-56
2022/05/04 00:54:59;;;;;;;5.80;4.37;;;8.90;99.90;;;;;;4173574;28;20037;-60
2022/05/04 00:57:02;;;;;;;8.80;5.23;;;8.90;99.90;;;;;;4174480;28;20903;-69
2022/05/04 00:59:03;;;;;;;10.27;5.07;;;8.90;99.90;;;;;;4173667;28;20037;-64
2022/05/04 01:01:06;;;;;;;6.97;5.17;;;8.90;99.90;;;;;;4173018;28;20427;-59
2022/05/04 01:03:07;;;;;;;9.13;4.80;;;8.90;99.90;;;;;;4173017;28;21383;-59
2022/05/04 01:05:09;;;;;;;7.07;5.00;;;8.90;99.90;;;;;;4172955;28;20562;-62
2022/05/04 01:07:10;;;;;;;13.40;5.73;;;8.90;99.90;;;;;;4173761;28;20025;-58
2022/05/04 01:09:12;;;;;;;8.80;6.07;;;8.90;99.90;;;;;;4173318;28;20036;-57
2022/05/04 01:11:13;;;;;;;7.07;4.23;;;8.80;99.90;;;;;;4173695;28;20087;-58
2022/05/04 01:13:18;;;;;;;10.37;5.13;;;8.70;99.90;;;;;;4173421;28;20056;-59
2022/05/04 01:15:22;;;;;;;6.83;5.00;;;8.70;99.90;;;;;;4173673;28;20025;-66
2022/05/04 01:17:23;;;;;;;5.80;4.43;;;8.60;99.90;;;;;;4173099;28;20025;-57
2022/05/04 01:19:24;;;;;;;6.33;4.73;;;8.70;99.90;;;;;;4173862;28;20037;-64
2022/05/04 01:21:25;;;;;;;7.40;5.13;;;8.70;99.90;;;;;;4172461;28;20033;-60
2022/05/04 01:23:27;;;;;;;6.77;4.47;;;8.70;99.90;;;;;;4173120;28;20924;-56
2022/05/04 01:25:29;;;;;;;8.77;4.83;;;8.70;99.90;;;;;;4173829;28;20041;-55
2022/05/04 01:27:31;;;;;;;7.80;4.83;;;8.70;99.90;;;;;;4173182;28;20032;-58
2022/05/04 01:29:32;;;;;;;7.23;5.83;;;8.70;99.90;;;;;;4173446;28;20025;-59
2022/05/04 01:31:33;;;;;;;6.70;4.63;;;8.70;99.90;;;;;;4172749;28;20535;-55
2022/05/04 01:33:34;;;;;;;6.40;4.93;;;8.70;99.90;;;;;;4173086;28;20090;-55
2022/05/04 01:35:35;;;;;;;4.97;4.43;;;8.70;99.90;;;;;;4172769;28;20045;-55
2022/05/04 01:37:36;;;;;;;12.00;4.43;;;8.70;99.90;;;;;;4172015;28;20102;-55
2022/05/04 01:39:38;;;;;;;9.50;5.40;;;8.70;99.90;;;;;;4172466;28;20423;-55
2022/05/04 01:43:58;;;;;;;5.13;4.13;;;8.70;99.90;;;;;;4173135;28;20037;-57
2022/05/04 01:46:00;;;;;;;7.27;4.13;;;8.70;99.90;;;;;;4173185;28;20037;-58
2022/05/04 01:48:01;;;;;;;9.47;6.43;;;8.60;99.90;;;;;;4172502;28;20483;-59
2022/05/04 01:50:03;;;;;;;9.97;5.60;;;8.60;99.90;;;;;;4173139;28;20479;-57
2022/05/04 01:52:05;;;;;;;7.50;4.70;;;8.70;99.90;;;;;;4171850;28;20053;-59
2022/05/04 01:54:06;;;;;;;7.13;4.63;;;8.70;99.90;;;;;;4172619;28;20132;-56
2022/05/04 01:56:08;;;;;;;6.03;4.50;;;8.70;99.90;;;;;;4172389;28;20091;-54
2022/05/04 01:58:11;;;;;;;7.27;4.27;;;8.70;99.90;;;;;;4172286;28;20913;-56
2022/05/04 02:00:13;;;;;;;10.73;4.33;;;8.70;99.90;;;;;;4172632;28;20025;-57
2022/05/04 02:02:14;;;;;;;4.83;4.33;;;8.70;99.90;;;;;;4173280;28;20029;-56
2022/05/04 02:04:15;;;;;;;7.40;4.07;;;8.80;99.90;;;;;;4171048;28;20087;-58
2022/05/04 02:06:17;;;;;;;7.43;4.03;;;8.80;99.90;;;;;;4172807;28;21326;-57
2022/05/04 02:08:18;;;;;;;9.90;4.80;;;8.80;99.90;;;;;;4172394;28;20040;-58
2022/05/04 02:10:20;;;;;;;5.17;4.07;;;8.80;99.90;;;;;;4172663;28;20049;-54
2022/05/04 02:12:21;;;;;;;10.90;4.57;;;8.80;99.90;;;;;;4172333;28;20036;-67
2022/05/04 02:14:22;;;;;;;5.77;4.40;;;8.80;99.90;;;;;;4171726;28;20072;-62
2022/05/04 02:16:23;;;;;;;14.37;4.90;;;8.80;99.90;;;;;;4171892;28;20032;-58
2022/05/04 02:18:24;;;;;;;6.13;3.90;;;8.80;99.90;;;;;;4153944;28;20083;-58
2022/05/04 02:20:25;;;;;;;7.30;4.47;;;8.70;99.90;;;;;;4172706;28;20037;-58
2022/05/04 02:22:27;;;;;;;10.90;4.57;;;8.80;99.90;;;;;;4171871;28;20111;-58
2022/05/04 02:24:28;;;;;;;6.10;4.40;;;8.70;99.90;;;;;;4171992;28;20045;-59
2022/05/04 02:26:29;;;;;;;5.53;4.27;;;8.70;99.90;;;;;;4172093;28;20390;-57
2022/05/04 02:28:30;;;;;;;6.83;4.47;;;8.70;99.90;;;;;;4172996;28;20360;-57
2022/05/04 02:30:31;;;;;;;7.10;4.57;;;8.60;99.90;;;;;;4172177;28;20102;-56
2022/05/04 02:32:32;;;;;;;8.60;4.23;;;8.60;99.90;;;;;;4171377;28;20087;-56
2022/05/04 02:34:33;;;;;;;6.67;4.53;;;8.60;99.90;;;;;;4171797;28;20436;-60
2022/05/04 02:38:54;;;;;;;7.87;4.97;;;8.60;99.90;;;;;;4156261;28;20041;-62
2022/05/04 02:40:56;;;;;;;13.77;5.73;;;8.60;99.90;;;;;;4155674;28;20560;-56
2022/05/04 02:42:58;;;;;;;6.60;5.10;;;8.60;99.90;;;;;;4155911;28;20021;-57
2022/05/04 02:44:59;;;;;;;7.67;5.27;;;8.60;99.90;;;;;;4155190;28;20041;-55
2022/05/04 02:47:00;;;;;;;8.23;4.87;;;8.60;99.90;;;;;;4155431;28;20041;-58
2022/05/04 02:49:01;;;;;;;7.60;4.80;;;8.60;99.90;;;;;;4155871;28;20037;-62
2022/05/04 02:51:02;;;;;;;7.43;5.30;;;8.60;99.90;;;;;;4156344;28;20045;-58
2022/05/04 02:53:07;;;;;;;5.40;4.60;;;8.60;99.90;;;;;;4169319;28;20037;-56
2022/05/04 02:55:08;;;;;;;12.83;5.97;;;8.60;99.90;;;;;;4171413;28;20072;-58
2022/05/04 02:57:09;;;;;;;9.47;4.70;;;8.60;99.90;;;;;;4171587;28;20028;-60
2022/05/04 02:59:10;;;;;;;7.20;4.57;;;8.70;99.90;;;;;;4172645;28;20041;-57
2022/05/04 03:03:35;;;;;;;8.47;4.50;;;8.70;99.90;;;;;;4172680;28;20083;-59
2022/05/04 03:05:36;;;;;;;6.63;3.77;;;8.70;99.90;;;;;;4170841;28;20048;-58
2022/05/04 03:07:38;;;;;;;5.73;3.97;;;8.70;99.90;;;;;;4172095;28;20562;-55
2022/05/04 03:09:39;;;;;;;6.80;3.90;;;8.70;99.90;;;;;;4171819;28;20029;-58
2022/05/04 03:11:55;;;;;;;7.27;3.80;;;8.70;99.90;;;;;;4172173;28;20041;-59
2022/05/04 03:13:56;;;;;;;7.77;3.70;;;8.80;99.90;;;;;;4172192;28;20102;-58
2022/05/04 03:15:57;;;;;;;5.13;3.53;;;8.80;99.90;;;;;;4172646;28;20638;-59
2022/05/04 03:17:58;;;;;;;6.07;4.20;;;8.80;99.90;;;;;;4171548;28;20087;-56
2022/05/04 03:20:00;;;;;;;4.70;3.13;;;8.80;99.90;;;;;;4172084;28;20078;-55
2022/05/04 03:22:02;;;;;;;7.67;3.83;;;8.80;99.90;;;;;;4171315;28;20091;-58
2022/05/04 03:24:03;;;;;;;8.83;3.90;;;8.80;99.90;;;;;;4171759;28;20083;-63
2022/05/04 03:26:08;;;;;;;6.00;4.20;;;8.90;99.90;;;;;;4171312;28;20037;-57
2022/05/04 03:28:09;;;;;;;8.57;4.57;;;8.90;99.90;;;;;;4170746;28;20049;-59
2022/05/04 03:30:11;;;;;;;12.00;4.63;;;8.90;99.90;;;;;;4171291;28;20037;-60
2022/05/04 03:32:12;;;;;;;14.73;4.70;;;8.90;99.90;;;;;;4171824;28;20033;-62
2022/05/04 03:34:13;;;;;;;5.97;4.03;;;8.90;99.90;;;;;;4171811;28;20087;-54
2022/05/04 03:36:14;;;;;;;7.83;4.33;;;8.90;99.90;;;;;;4170908;28;20087;-68
2022/05/04 03:38:16;;;;;;;10.17;4.10;;;9.00;99.90;;;;;;4171004;28;20553;-57
2022/05/04 03:40:17;;;;;;;6.67;4.30;;;9.00;99.90;;;;;;4170529;28;20053;-54
2022/05/04 03:42:18;;;;;;;9.50;3.90;;;9.00;99.90;;;;;;4171542;28;20037;-59
2022/05/04 03:44:19;;;;;;;6.23;4.10;;;8.90;99.90;;;;;;4172662;28;20621;-60
2022/05/04 03:46:26;;;;;;;5.33;3.67;;;8.90;99.90;;;;;;4175077;28;20033;-59
2022/05/04 03:48:27;;;;;;;6.97;3.93;;;8.90;99.90;;;;;;4140242;28;20108;-60
2022/05/04 03:50:28;;;;;;;18.83;4.80;;;9.00;99.90;;;;;;4158718;28;20465;-60
2022/05/04 03:52:29;;;;;;;6.97;4.00;;;9.00;99.90;;;;;;4158131;28;20033;-61
2022/05/04 03:54:31;;;;;;;5.63;4.23;;;9.00;99.90;;;;;;4158735;28;20033;-56
2022/05/04 03:56:33;;;;;;;7.87;4.67;;;9.10;99.90;;;;;;4169080;28;20102;-61
2022/05/04 03:58:35;;;;;;;7.77;4.57;;;9.40;99.90;;;;;;4174643;28;20028;-58
2022/05/04 04:00:36;;;;;;;8.70;5.00;;;9.70;99.90;;;;;;4174269;28;20124;-62
2022/05/04 04:02:37;;;;;;;6.40;5.33;;;10.20;99.90;;;;;;4172106;28;20133;-55
2022/05/04 04:04:38;;;;;;;5.73;4.40;;;10.50;99.90;;;;;;4170388;28;20056;-63
2022/05/04 04:06:39;;;;;;;6.17;5.17;;;10.90;99.90;;;;;;4169824;28;20106;-60
2022/05/04 04:08:41;;;;;;;12.90;4.77;;;11.30;99.90;;;;;;4169471;28;20095;-57
2022/05/04 04:10:42;;;;;;;9.13;4.53;;;11.70;99.90;;;;;;4167966;28;20397;-56
2022/05/04 04:12:43;;;;;;;7.20;4.10;;;12.10;99.90;;;;;;4168804;28;20099;-59
2022/05/04 04:14:44;;;;;;;8.40;4.53;;;12.50;99.90;;;;;;4168957;28;20029;-59
2022/05/04 04:16:45;;;;;;;13.27;4.63;;;12.80;99.90;;;;;;4169273;28;20443;-56
2022/05/04 04:18:47;;;;;;;6.63;4.07;;;13.10;99.90;;;;;;4170236;28;20045;-59
2022/05/04 04:23:08;;;;;;;6.65;3.95;;;13.70;99.90;;;;;;4173789;28;20029;-58
2022/05/04 04:25:10;;;;;;;6.60;4.23;;;14.00;99.90;;;;;;4171252;28;20045;-56
2022/05/04 04:27:11;;;;;;;6.53;4.30;;;14.20;99.90;;;;;;4168777;28;20451;-61
2022/05/04 04:29:12;;;;;;;8.87;4.00;;;14.40;99.90;;;;;;4168359;28;20091;-58
2022/05/04 04:31:13;;;;;;;6.37;3.93;;;14.50;99.90;;;;;;4181203;28;20518;-62
2022/05/04 04:33:15;;;;;;;6.87;3.50;;;14.40;99.90;;;;;;4177505;28;20049;-62
2022/05/04 04:35:16;;;;;;;7.47;3.67;;;14.40;99.90;;;;;;4186209;28;20048;-61
2022/05/04 04:37:17;;;;;;;6.67;3.60;;;14.40;99.90;;;;;;4181909;28;20032;-58
2022/05/04 04:39:18;;;;;;;4.27;3.27;;;14.70;99.90;;;;;;4176872;28;20558;-60
2022/05/04 04:41:19;;;;;;;6.13;3.43;;;14.90;99.90;;;;;;4178225;28;20044;-63
2022/05/04 04:43:20;;;;;;;8.40;3.60;;;15.30;99.90;;;;;;4181484;28;20642;-67
2022/05/04 04:45:22;;;;;;;6.60;3.33;;;15.60;99.90;;;;;;4186541;28;20495;-58
2022/05/04 04:47:23;;;;;;;9.50;3.33;;;15.90;99.90;;;;;;4189822;28;20045;-58
2022/05/04 04:49:25;;;;;;;8.97;3.37;;;16.10;99.90;;;;;;4189405;28;20052;-57
2022/05/04 04:51:27;;;;;;;7.00;3.17;;;16.20;99.90;;;;;;4189300;28;20579;-64
2022/05/04 04:53:28;;;;;;;10.77;3.28;;;16.40;99.90;;;;;;4159672;28;20044;-65
2022/05/04 04:55:29;;;;;;;8.52;3.13;;;16.70;99.90;;;;;;4168637;28;20443;-55
2022/05/04 04:57:33;;;;;;;4.90;2.95;;;17.10;99.90;;;;;;4171612;28;20374;-69
2022/05/04 04:59:34;;;;;;;7.25;3.28;;;17.40;99.90;;;;;;4172171;28;20074;-58
2022/05/04 05:01:35;;;;;;;6.63;2.90;;;17.60;99.90;;;;;;4169806;28;20037;-58
2022/05/04 05:03:36;;;;;;;7.80;3.17;;;17.60;99.90;;;;;;4173314;28;21047;-65
2022/05/04 05:05:41;;;;;;;5.72;3.03;;;17.80;99.90;;;;;;4173296;28;20468;-60
2022/05/04 05:07:43;;;;;;;8.07;3.53;;;18.00;99.90;;;;;;4172786;28;20044;-58
2022/05/04 05:09:44;;;;;;;4.78;3.13;;;18.80;99.90;;;;;;4172927;28;20154;-58
2022/05/04 05:11:45;;;;;;;6.47;2.88;;;19.10;99.90;;;;;;4173070;28;20036;-57
2022/05/04 05:16:08;;;;;;;9.35;2.80;;;19.20;99.50;;;;;;4173418;28;20086;-63
2022/05/04 05:18:10;;;;;;;7.35;3.05;;;19.70;98.90;;;;;;4172602;28;20053;-60
2022/05/04 05:20:11;;;;;;;5.40;3.00;;;19.70;97.80;;;;;;4171844;28;20534;-57
2022/05/04 05:22:13;;;;;;;4.57;2.90;;;19.50;97.10;;;;;;4173546;28;20035;-60
2022/05/04 05:24:14;;;;;;;4.10;2.10;;;18.90;96.70;;;;;;4171460;28;20539;-63
2022/05/04 05:26:15;;;;;;;4.80;2.58;;;18.80;97.10;;;;;;4173286;28;20526;-58
2022/05/04 05:28:16;;;;;;;4.38;2.42;;;19.10;97.00;;;;;;4171808;28;20033;-61
2022/05/04 05:30:17;;;;;;;3.63;2.42;;;19.40;96.80;;;;;;4172034;28;20086;-61
2022/05/04 05:32:18;;;;;;;4.85;2.22;;;19.50;95.90;;;;;;4172553;28;20079;-66
2022/05/04 05:34:20;;;;;;;7.15;2.80;;;19.50;95.70;;;;;;4172897;28;20435;-58
2022/05/04 05:36:21;;;;;;;4.32;2.25;;;19.10;95.70;;;;;;4172740;28;20055;-58
2022/05/04 05:38:25;;;;;;;3.97;2.40;;;19.40;95.50;;;;;;4172820;28;20463;-53
2022/05/04 05:40:27;;;;;;;6.18;2.35;;;19.70;95.10;;;;;;4172167;28;20086;-56
2022/05/04 05:42:28;;;;;;;8.73;2.38;;;20.10;94.60;;;;;;4173045;28;20358;-58
2022/05/04 05:44:30;;;;;;;2.78;2.20;;;20.10;93.80;;;;;;4172561;28;20123;-53
2022/05/04 05:46:31;;;;;;;5.97;2.50;;;20.50;93.70;;;;;;4172006;28;20041;-59
2022/05/04 05:48:32;;;;;;;8.38;3.08;;;;;;;;;;4171780;28;20045;-57
2022/05/04 05:50:34;;;;;;;7.85;2.83;;;;;;;;;;4171578;28;20041;-58
2022/05/04 05:52:35;;;;;;;6.72;3.00;;;;;;;;;;4172458;28;20106;-56
2022/05/04 05:54:37;;;;;;;3.05;2.13;;;;;;;;;;4172246;28;20567;-59
2022/05/04 05:56:38;;;;;;;5.70;2.47;;;;;;;;;;4173295;28;20029;-59
2022/05/04 05:58:40;;;;;;;4.43;2.65;;;;;;;;;;4171656;28;20515;-63
2022/05/04 06:00:41;;;;;;;7.70;2.10;;;;;;;;;;4172958;28;20028;-66
2022/05/04 06:02:45;;;;;;;3.80;2.30;;;;;;;;;;4171358;28;20064;-61
2022/05/04 06:04:46;;;;;;;7.85;2.38;;;;;;;;;;4172874;28;20452;-61
2022/05/04 06:06:48;;;;;;;5.95;2.30;;;;;;;;;;4172083;28;20481;-64
2022/05/04 06:08:49;;;;;;;9.63;3.03;;;;;;;;;;4171688;28;20037;-61
2022/05/04 06:10:50;;;;;;;7.40;2.38;;;20.70;93.00;;;;;;4171230;28;20324;-58
2022/05/04 06:12:51;;;;;;;4.97;2.47;;;20.60;90.20;;;;;;4171411;28;20048;-57
2022/05/04 06:14:53;;;;;;;6.43;2.58;;;20.70;90.20;;;;;;4172983;28;20029;-60
2022/05/04 06:16:54;;;;;;;3.97;2.17;;;;;;;;;;4171636;28;20131;-58
2022/05/04 06:18:55;;;;;;;9.20;2.58;;;;;;;;;;4172243;28;20100;-63
2022/05/04 06:20:58;;;;;;;6.63;2.28;;;;;;;;;;4171270;28;20028;-72
2022/05/04 06:23:00;;;;;;;4.78;2.25;;;;;;;;;;4171869;28;20087;-61
2022/05/04 06:25:01;;;;;;;5.90;2.80;;;;;;;;;;4172339;28;20037;-64
2022/05/04 06:27:03;;;;;;;3.97;2.40;;;;;;;;;;4171625;28;20079;-61
2022/05/04 06:29:04;;;;;;;6.13;1.98;;;;;;;;;;4171590;28;20155;-61
2022/05/04 06:35:46;;;;;;;14.27;2.90;;;;;;;;;;4172904;28;20461;-62
2022/05/04 06:37:48;;;;;;;3.08;2.30;;;;;;;;;;4170631;28;20107;-59
2022/05/04 06:39:49;;;;;;;3.42;1.77;;;;;;;;;;4171976;28;20453;-60
2022/05/04 06:41:51;;;;;;;4.22;1.50;;;;;;;;;;4170577;28;20110;-60
2022/05/04 06:43:52;;;;;;;3.92;1.98;;;;;;;;;;4171519;28;20530;-70
2022/05/04 06:45:53;;;;;;;7.13;1.75;;;;;;;;;;4171818;28;20033;-60
2022/05/04 06:47:55;;;;;;;1.90;1.52;;;;;;;;;;4170723;28;20110;-59
2022/05/04 06:49:56;;;;;;;6.63;1.70;;;;;;;;;;4171780;28;20532;-59
2022/05/04 06:51:58;;;;;;;3.95;1.90;;;;;;;;;;4171677;28;20033;-63
2022/05/04 06:53:59;;;;;;;3.63;1.67;;;;;;;;;;4171832;28;20041;-60
2022/05/04 06:56:01;;;;;;;2.65;1.80;;;;;;;;;;4171321;28;20582;-59
2022/05/04 06:58:02;;;;;;;4.15;1.73;;;;;;;;;;4171946;28;20029;-55
2022/05/04 07:00:04;;;;;;;5.43;1.58;;;;;;;;;;4172135;28;20025;-58
2022/05/04 07:02:06;;;;;;;4.22;2.10;;;;;;;;;;4153717;28;20758;-57
2022/05/04 07:04:07;;;;;;;3.33;1.60;;;;;;;;;;4171229;28;20049;-60
2022/05/04 07:06:08;;;;;;;3.60;1.65;;;;;;;;;;4171143;28;20042;-59
2022/05/04 07:08:10;;;;;;;1.52;1.40;;;;;;;;;;4171153;28;20075;-60
2022/05/04 07:10:11;;;;;;;3.08;1.90;;;;;;;;;;4171302;28;20061;-60
2022/05/04 07:12:13;;;;;;;4.95;1.77;;;;;;;;;;4170930;28;20169;-59
2022/05/04 07:14:14;;;;;;;3.28;2.03;;;;;;;;;;4171911;28;20126;-59
2022/05/04 07:16:15;;;;;;;3.75;2.00;;;;;;;;;;4170767;28;20381;-60
2022/05/04 07:18:17;;;;;;;3.95;2.20;;;;;;;;;;4171541;28;20049;-58
2022/05/04 07:20:19;;;;;;;2.53;2.20;;;;;;;;;;4174349;28;20033;-58
2022/05/04 07:22:24;;;;;;;6.10;2.17;;;;;;;;;;4175062;28;20388;-59
2022/05/04 07:24:25;;;;;;;7.28;2.10;;;;;;;;;;4174905;28;20608;-60
2022/05/04 07:26:27;;;;;;;2.85;1.88;;;;;;;;;;4174119;28;20130;-56
2022/05/04 07:28:28;;;;;;;4.90;2.33;;;;;;;;;;4174112;28;20037;-60
2022/05/04 07:30:30;;;;;;;3.92;2.55;;;;;;;;;;4173993;28;20547;-67
2022/05/04 07:32:31;;;;;;;6.53;2.20;;;;;;;;;;4174807;28;20029;-69
2022/05/04 07:34:33;;;;;;;3.28;2.30;;;;;;;;;;4174807;28;20071;-73
2022/05/04 07:36:34;;;;;;;3.10;2.03;;;;;;;;;;4174978;28;20033;-70
2022/05/04 07:38:36;;;;;;;2.50;2.00;;;;;;;;;;4173480;28;20033;-59
2022/05/04 07:42:58;;;;;;;;;;;;;;;;;;4175323;28;20037;-59
2022/05/04 07:45:11;;;;;;;15.85;4.07;;;;;;;;;;4175379;28;19990;-58
2022/05/04 07:47:13;;;;;;;15.32;2.97;;;;;;;;;;4174534;28;20025;-66
2022/05/04 07:49:14;;;;;;;12.35;3.58;;;;;;;;;;4174092;28;20118;-62
2022/05/04 07:51:15;;;;;;;5.85;2.45;;;;;;;;;;4173552;28;20029;-61
2022/05/04 07:53:17;;;;;;;5.18;2.15;;;;;;;;;;4174937;28;20106;-66
2022/05/04 07:55:18;;;;;;;6.32;2.40;;;;;;;;;;4173890;28;20029;-60
2022/05/04 07:57:20;;;;;;;3.83;2.60;;;;;;;;;;4174645;28;20036;-60
2022/05/04 07:59:21;;;;;;;4.68;2.25;;;;;;;;;;4173293;28;20440;-60
2022/05/04 08:06:04;;;;;;;3.30;2.30;;;;;;;;;;4174661;28;20041;-59
2022/05/04 08:08:05;;;;;;;3.00;2.10;;;;;;;;;;4173809;28;20411;-59
2022/05/04 08:10:07;;;;;;;5.80;2.70;;;;;;;;;;4173900;28;20130;-58
2022/05/04 08:12:11;;;;;;;3.72;2.45;;;;;;;;;;4173419;28;20104;-59
2022/05/04 08:14:12;;;;;;;5.45;2.63;;;;;;;;;;4174160;28;20034;-68
2022/05/04 08:16:14;;;;;;;5.13;2.78;;;;;;;;;;4174429;28;20069;-59
2022/05/04 08:18:16;;;;;;;4.50;2.40;;;;;;;;;;4173463;28;20122;-60
2022/05/04 08:20:18;;;;;;;5.80;2.22;;;;;;;;;;4174428;28;20033;-71
2022/05/04 08:22:19;;;;;;;4.57;2.70;;;;;;;;;;4173381;28;20107;-61
2022/05/04 08:24:21;;;;;;;5.97;2.95;;;;;;;;;;4173691;28;20063;-64
2022/05/04 08:26:22;;;;;;;7.40;3.05;;;;;;;;;;4173764;28;20071;-66
2022/05/04 08:28:24;;;;;;;7.35;2.90;;;;;;;;;;4174047;28;20037;-59
2022/05/04 08:30:25;;;;;;;7.05;2.90;;;;;;;;;;4171586;28;20547;-59
2022/05/04 08:32:29;;;;;;;8.05;2.78;;;;;;;;;;4174032;28;20032;-66
2022/05/04 08:34:30;;;;;;;10.00;3.25;;;;;;;;;;4173060;28;20970;-69
2022/05/04 08:36:32;;;;;;;4.18;2.60;;;;;;;;;;4173306;28;20094;-65
2022/05/04 08:38:33;;;;;;;4.28;2.60;;;;;;;;;;4173087;28;20033;-63
2022/05/04 08:40:35;;;;;;;2.60;2.30;;;;;;;;;;4173991;28;20086;-57
2022/05/04 08:42:41;;;;;;;3.20;2.20;;;;;;;;;;4173108;28;20090;-63
2022/05/04 08:44:45;;;;;;;5.32;2.53;;;;;;;;;;4174474;28;20090;-62
2022/05/04 08:46:46;;;;;;;3.67;2.53;;;;;;;;;;4173731;28;20029;-57
2022/05/04 08:48:48;;;;;;;3.80;2.58;;;;;;;;;;4173263;28;20029;-60
2022/05/04 08:50:50;;;;;;;8.95;4.88;;;21.10;90.30;;;;;;4173388;28;20091;-66
2022/05/04 08:52:56;;;;;;;12.63;4.38;;;20.40;83.30;;;;;;4173275;28;20028;-57
2022/05/04 08:54:57;;;;;;;6.22;2.75;;;20.20;82.70;;;;;;4173597;28;20078;-60
2022/05/04 08:56:59;;;;;;;5.25;2.63;;;20.10;82.20;;;;;;4173741;28;20067;-60
2022/05/04 08:59:05;;;;;;;6.85;3.28;;;19.90;82.20;;;;;;4172512;28;20040;-59
2022/05/04 09:01:06;;;;;;;5.25;3.28;;;19.90;83.00;;;;;;4172893;28;20037;-59
2022/05/04 09:03:07;;;;;;;12.93;6.97;;;20.00;82.80;;;;;;4173983;28;20029;-60
2022/05/04 09:05:25;;;;;;;3.40;1.88;;;20.10;82.60;;;;;;4172467;28;20492;-59
2022/05/04 09:07:28;;;;;;;2.50;2.30;;;20.00;82.70;;;;;;4173107;28;20025;-58
2022/05/04 09:09:34;;;;;;;5.15;2.40;;;19.80;83.00;;;;;;4172998;28;20074;-59
2022/05/04 09:11:40;;;;;;;4.35;2.50;;;19.50;84.00;;;;;;4173768;28;20022;-61
2022/05/04 09:13:48;;;;;;;5.32;1.92;;;19.30;84.20;;;;;;4173242;28;20098;-64
2022/05/04 09:15:51;;;;;;;6.35;3.28;;;19.20;84.40;;;;;;4174187;28;20040;-66
2022/05/04 09:18:04;;;;;;;4.03;1.85;;;19.20;84.40;;;;;;4153920;28;20045;-60
2022/05/04 09:22:26;;;;;;;3.88;2.40;;;19.20;83.90;;;;;;4172944;28;20032;-58
2022/05/04 09:24:32;;;;;;;3.40;2.40;;;19.20;84.50;;;;;;4172165;28;20025;-63
2022/05/04 09:26:41;;;;;;;4.70;3.15;;;19.10;84.40;;;;;;4171437;28;20021;-60
2022/05/04 09:28:42;;;;;;;12.45;4.93;;;19.30;85.00;;;;;;4172528;28;20033;-61
2022/05/04 09:30:47;;;;;;;5.90;2.60;;;19.50;84.60;;;;;;4171071;28;20083;-61
2022/05/04 09:32:49;;;;;;;3.38;2.10;;;19.60;84.60;;;;;;4173299;28;20029;-61
2022/05/04 09:34:51;;;;;;;4.80;2.08;;;19.70;84.70;;;;;;4171612;28;20128;-63
2022/05/04 09:46:36;;;;;;;2.75;2.10;;;20.10;83.10;;;;;;4173779;28;20102;-63
2022/05/04 09:48:37;;;;;;;5.50;2.53;;;20.00;80.90;;;;;;4172356;28;20070;-61
2022/05/04 09:50:39;;;;;;;12.25;2.42;;;19.80;82.00;;;;;;4171879;28;20100;-61
2022/05/04 09:52:43;;;;;;;4.35;2.80;;;19.80;82.10;;;;;;4171322;28;20049;-61
2022/05/04 09:54:45;;;;;;;5.20;2.65;;;19.60;81.20;;;;;;4172570;28;20052;-58
2022/05/04 09:56:48;;;;;;;4.22;2.15;;;19.60;81.30;;;;;;4172277;28;20029;-62
2022/05/04 09:58:51;;;;;;;2.42;2.17;;;19.70;80.80;;;;;;4172849;28;20037;-59
2022/05/04 10:00:53;;;;;;;3.78;2.22;;;19.90;80.20;;;;;;4172307;28;20059;-59
2022/05/04 10:02:57;;;;;;;2.95;2.20;;;20.00;79.70;;;;;;4172846;28;20032;-58
2022/05/04 10:05:00;;;;;;;4.30;2.28;;;20.10;79.00;;;;;;4171891;28;20041;-60
2022/05/04 10:07:03;;;;;;;4.88;2.20;;;20.10;78.70;;;;;;4173067;28;20029;-72
2022/05/04 10:09:05;;;;;;;3.70;2.53;;;20.10;79.00;;;;;;4172116;28;20029;-66
2022/05/04 10:11:06;;;;;;;9.02;2.20;;;20.00;78.70;;;;;;4172147;28;20028;-63
2022/05/04 10:13:08;;;;;;;4.32;2.13;;;19.90;78.30;;;;;;4172062;28;20025;-59
2022/05/04 10:15:11;;;;;;;3.15;2.55;;;20.00;78.50;;;;;;4172229;28;20032;-60
2022/05/04 10:17:23;;;;;;;4.15;2.60;;;20.10;78.40;;;;;;4172062;28;20054;-58
2022/05/04 10:19:34;;;;;;;4.68;2.30;;;;;;;;;;4172016;28;20029;-67
2022/05/04 10:21:36;;;;;;;2.72;2.10;;;;;;;;;;4171785;28;20037;-60
2022/05/04 10:23:41;;;;;;;2.05;1.95;;;;;;;;;;4171110;28;20037;-62
2022/05/04 10:25:43;;;;;;;3.78;1.90;;;;;;;;;;4172201;28;20035;-61
2022/05/04 10:27:49;;;;;;;4.75;2.20;;;;;;;;;;4170974;28;20037;-60
2022/05/04 10:32:29;;;;;;;3.03;2.20;;;;;;;;;;4171943;28;20121;-58
2022/05/04 10:34:32;;;;;;;4.20;2.25;;;;;;;;;;4171189;28;20049;-64
2022/05/04 10:36:33;;;;;;;8.02;2.80;;;20.40;77.70;;;;;;4171136;28;20045;-61
2022/05/04 10:38:34;;;;;;;5.18;2.53;;;20.50;75.50;;;;;;4170873;28;20033;-61
2022/05/04 10:40:43;;;;;;;8.02;2.80;;;20.40;75.40;;;;;;4171902;28;20029;-58
2022/05/04 10:43:38;;;;;;;2.70;2.13;;;20.50;75.60;;;;;;4170872;28;20052;-65
2022/05/04 10:45:50;;;;;;;2.63;1.90;;;20.50;73.90;;;;;;4121074;28;20037;-59
2022/05/04 10:47:51;;;;;;;3.25;1.85;;;20.40;76.00;;;;;;4160413;28;20041;-68
2022/05/04 10:50:00;;;;;;;2.60;2.35;;;20.50;76.30;;;;;;4171767;28;20029;-60
2022/05/04 10:52:04;;;;;;;3.47;2.10;;;20.40;75.50;;;;;;4172113;28;20539;-60
2022/05/04 10:54:17;;;;;;;4.47;2.28;;;20.30;74.70;;;;;;4170952;28;20037;-65
2022/05/04 10:56:28;;;;;;;3.78;2.80;;;20.40;72.80;;;;;;4170967;28;20098;-71
2022/05/04 10:58:33;;;;;;;7.85;2.40;;;20.40;73.50;;;;;;4170798;28;20041;-57
2022/05/04 11:00:34;;;;;;;7.05;2.20;;;20.40;72.80;;;;;;4171783;28;20075;-59
2022/05/04 11:02:35;;;;;;;2.58;2.17;;;20.30;73.10;;;;;;4171370;28;20100;-59
2022/05/04 11:04:39;;;;;;;2.80;1.90;;;20.40;73.40;;;;;;4171306;28;20107;-65
2022/05/04 11:06:49;;;;;;;5.82;2.28;;;20.40;73.90;;;;;;4170904;28;20114;-60
2022/05/04 11:08:52;;;;;;;5.85;2.65;;;20.60;74.00;;;;;;4170813;28;20099;-65
2022/05/04 11:10:53;;;;;;;2.80;2.03;;;;;;;;;;4170294;28;20033;-59
2022/05/04 11:12:55;;;;;;;4.70;2.10;;;;;;;;;;4171409;28;20370;-59
2022/05/04 11:14:57;;;;;;;1.98;1.83;;;;;;;;;;4170396;28;20045;-56
2022/05/04 11:16:59;;;;;;;4.57;2.17;;;;;;;;;;4171983;28;20033;-58
2022/05/04 11:19:01;;;;;;;6.75;3.28;;;;;;;;;;4170119;28;20547;-58
2022/05/04 11:21:06;;;;;;;2.70;2.08;;;;;;;;;;4171022;28;20045;-58
2022/05/04 11:23:08;;;;;;;2.80;2.30;;;;;;;;;;4170854;28;20025;-65
2022/05/04 11:25:10;;;;;;;4.18;2.05;;;20.90;74.10;;;;;;4171113;28;20111;-59
2022/05/04 11:27:16;;;;;;;2.95;1.83;;;20.80;71.10;;;;;;4170263;28;20055;-58
2022/05/04 11:29:23;;;;;;;3.50;2.30;;;20.70;71.30;;;;;;4170840;28;20045;-59
2022/05/04 11:31:24;;;;;;;4.07;2.15;;;20.70;71.70;;;;;;4170686;28;20052;-66
2022/05/04 11:33:26;;;;;;;3.60;1.73;;;20.80;72.20;;;;;;4170894;28;20041;-59
2022/05/04 11:35:28;;;;;;;2.42;2.22;;;21.00;71.90;;;;;;4171281;28;20033;-62
2022/05/04 11:37:33;;;;;;;3.88;2.28;;;20.80;73.10;;;;;;4171683;28;20037;-61
2022/05/04 11:39:36;;;;;;;4.90;2.85;;;20.80;73.20;;;;;;4171402;28;20086;-57
2022/05/04 11:41:37;;;;;;;4.93;2.40;;;20.70;73.20;;;;;;4152452;28;20091;-63